Monarch, Utah
Current Conditions -  °F | °C
As of 1:53 AM on Saturday 22 Nov 2014 (Local Time) from KVEL Reporting Station
Clear Clear  
Wind Chill: 16°   Ceiling: Unl
Heat Index: 22°   Visibility: 10mi
Dew Point: 13°   Wind: 5mph
Humidity: 68%   Direction: 280°W
Pressure: 30.05"   Gusts: NA
Location:  40.5914°N, 110.379°W
Report Text: KVEL 220853Z AUTO 28004KT 10SM CLR M06/M11 A3005 RMK AO2 SLP188 T10561106 55000
Loading
Personal Weather Stations






























Interactive Weather Map New forecast layout! Learn more

10-Day Weather Forecast

Advertisements
Track Severe Weather on mobile